Alder Grove, Washington
Current Conditions -  °F | °C
As of 12:11 PM on Thursday 18 Dec 2014 (Local Time) from KSHN Reporting Station
Light Rain Light Rain  
Wind Chill:   Ceiling: 700
Heat Index:   Visibility: 5mi
Dew Point:   Wind: 3mph
Humidity: 93%   Direction: NA
Pressure: 29.83"   Gusts: NA
Location:  47.555°N, 123.746°W
Report Text: KSHN 182011Z AUTO VRB03KT 5SM -RA BR BKN007 BKN022 OVC034 08/07 A2983 RMK AO2 P0002 T00780067
Loading
Personal Weather Stations






























Interactive Weather Map New forecast layout! Learn more

10-Day Weather Forecast

Advertisements
Track Severe Weather on mobile